createdAt,value
2017-10-15T00:01:33.589Z,11.71
2017-10-15T00:04:01.190Z,11.69
2017-10-15T00:06:28.656Z,11.69
2017-10-15T00:08:56.128Z,11.69
2017-10-15T00:11:23.584Z,11.70
2017-10-15T00:13:51.072Z,11.80
2017-10-15T00:16:18.589Z,11.72
2017-10-15T00:18:46.055Z,11.64
2017-10-15T00:21:13.536Z,11.58
2017-10-15T00:23:41.030Z,11.53
2017-10-15T00:26:08.507Z,11.45
2017-10-15T00:28:36.665Z,11.39
2017-10-15T00:31:04.165Z,11.36
2017-10-15T00:33:31.645Z,11.31
2017-10-15T00:35:59.113Z,11.28
2017-10-15T00:38:26.605Z,11.27
2017-10-15T00:40:54.057Z,11.29
2017-10-15T00:43:21.509Z,11.29
2017-10-15T00:45:49.003Z,11.28
2017-10-15T00:48:16.470Z,11.26
2017-10-15T00:50:43.969Z,11.29
2017-10-15T00:53:11.475Z,11.27
2017-10-15T00:55:38.999Z,11.26
2017-10-15T01:00:40.332Z,11.34
2017-10-15T01:03:07.807Z,11.30
2017-10-15T01:05:35.310Z,11.29
2017-10-15T01:08:02.807Z,11.31
2017-10-15T01:10:30.285Z,11.30
2017-10-15T01:12:57.758Z,11.32
2017-10-15T01:15:25.265Z,11.31
2017-10-15T01:17:52.734Z,11.28
2017-10-15T01:20:20.198Z,11.24
2017-10-15T01:22:47.711Z,11.26
2017-10-15T01:25:15.196Z,11.31
2017-10-15T01:27:42.676Z,11.36
2017-10-15T01:30:10.167Z,11.36
2017-10-15T01:32:37.653Z,11.37
2017-10-15T01:35:05.122Z,11.35
2017-10-15T01:37:32.621Z,11.32
2017-10-15T01:40:00.090Z,11.30
2017-10-15T01:42:27.629Z,11.29
2017-10-15T01:44:55.141Z,11.42
2017-10-15T01:47:22.608Z,11.46
2017-10-15T01:49:50.079Z,11.48
2017-10-15T01:52:17.570Z,11.41
2017-10-15T01:54:45.029Z,11.39
2017-10-15T01:57:12.508Z,11.41
2017-10-15T01:59:40.058Z,11.44
2017-10-15T02:02:07.522Z,11.48
2017-10-15T02:04:34.983Z,11.52
2017-10-15T02:07:02.480Z,11.49
2017-10-15T02:09:29.969Z,11.44
2017-10-15T02:11:57.435Z,11.38
2017-10-15T02:14:24.917Z,11.34
2017-10-15T02:16:52.395Z,11.41
2017-10-15T02:19:19.852Z,11.42
2017-10-15T02:21:47.432Z,11.37
2017-10-15T02:24:14.900Z,11.41
2017-10-15T02:26:42.534Z,11.32
2017-10-15T02:29:10.018Z,11.27
2017-10-15T02:31:37.478Z,11.21
2017-10-15T02:34:04.950Z,11.16
2017-10-15T02:36:32.453Z,11.13
2017-10-15T02:38:59.929Z,11.04
2017-10-15T02:41:27.385Z,10.96
2017-10-15T02:43:54.863Z,10.89
2017-10-15T02:46:22.356Z,10.81
2017-10-15T02:48:49.825Z,10.77
2017-10-15T02:51:17.311Z,10.76
2017-10-15T02:53:44.767Z,10.75
2017-10-15T02:56:12.224Z,10.72
2017-10-15T02:58:39.714Z,10.71
2017-10-15T03:01:07.174Z,10.68
2017-10-15T03:03:34.654Z,10.66
2017-10-15T03:06:02.149Z,10.65
2017-10-15T03:08:29.606Z,10.62
2017-10-15T03:10:57.091Z,10.57
2017-10-15T03:13:24.596Z,10.56
2017-10-15T03:15:52.071Z,10.56
2017-10-15T03:18:19.556Z,10.53
2017-10-15T03:20:47.084Z,10.56
2017-10-15T03:23:14.551Z,10.56
2017-10-15T03:25:42.013Z,10.57
2017-10-15T03:28:09.503Z,10.58
2017-10-15T03:30:36.981Z,10.59
2017-10-15T03:33:04.450Z,10.58
2017-10-15T03:35:31.935Z,10.63
2017-10-15T03:37:59.417Z,10.56
2017-10-15T03:40:26.920Z,10.50
2017-10-15T03:42:54.431Z,10.42
2017-10-15T03:45:21.903Z,10.37
2017-10-15T03:47:49.365Z,10.33
2017-10-15T03:50:16.855Z,10.36
2017-10-15T03:52:44.323Z,10.37
2017-10-15T03:55:11.784Z,10.33
2017-10-15T03:57:39.261Z,10.37
2017-10-15T04:00:06.725Z,10.40
2017-10-15T04:02:34.201Z,10.40
2017-10-15T04:05:01.698Z,10.45
2017-10-15T04:07:29.174Z,10.49
2017-10-15T04:09:56.659Z,10.47
2017-10-15T04:12:24.128Z,10.59
2017-10-15T04:14:51.596Z,10.49
2017-10-15T04:17:19.072Z,10.42
2017-10-15T04:19:46.593Z,10.33
2017-10-15T04:22:14.081Z,10.27
2017-10-15T04:24:41.539Z,10.27
2017-10-15T04:27:09.032Z,10.26
2017-10-15T04:29:36.504Z,10.23
2017-10-15T04:32:03.981Z,10.20
2017-10-15T04:34:31.505Z,10.18
2017-10-15T04:36:58.969Z,10.15
2017-10-15T04:39:26.426Z,10.12
2017-10-15T04:41:53.908Z,10.09
2017-10-15T04:44:21.416Z,10.11
2017-10-15T04:46:49.181Z,10.08
2017-10-15T04:49:16.660Z,10.10
2017-10-15T04:51:44.121Z,10.18
2017-10-15T04:54:11.592Z,10.18
2017-10-15T04:56:39.133Z,10.15
2017-10-15T04:59:06.591Z,10.17
2017-10-15T05:01:34.067Z,10.17
2017-10-15T05:04:01.561Z,10.12
2017-10-15T05:06:29.032Z,10.08
2017-10-15T05:08:56.496Z,10.06
2017-10-15T05:11:24.033Z,10.04
2017-10-15T05:13:51.498Z,10.02
2017-10-15T05:16:18.976Z,10.00
2017-10-15T05:18:46.479Z,10.00
2017-10-15T05:21:13.950Z,10.01
2017-10-15T05:23:41.420Z,10.04
2017-10-15T05:26:08.941Z,10.04
2017-10-15T05:28:36.430Z,10.05
2017-10-15T05:31:03.897Z,10.06
2017-10-15T05:33:31.415Z,10.09
2017-10-15T05:35:58.906Z,10.19
2017-10-15T05:38:26.371Z,10.30
2017-10-15T05:40:53.845Z,10.40
2017-10-15T05:43:21.303Z,10.53
2017-10-15T05:45:48.769Z,10.65
2017-10-15T05:48:16.257Z,10.72
2017-10-15T05:50:43.818Z,10.74
2017-10-15T05:53:11.457Z,10.85
2017-10-15T05:55:38.945Z,10.86
2017-10-15T05:58:06.404Z,10.93
2017-10-15T06:00:33.881Z,10.93
2017-10-15T06:03:01.394Z,10.92
2017-10-15T06:05:28.888Z,10.93
2017-10-15T06:07:56.376Z,10.99
2017-10-15T06:10:23.861Z,11.07
2017-10-15T06:12:51.328Z,11.14
2017-10-15T06:15:18.817Z,11.20
2017-10-15T06:17:46.313Z,11.30
2017-10-15T06:20:13.792Z,11.44
2017-10-15T06:22:41.269Z,11.51
2017-10-15T06:25:08.762Z,11.56
2017-10-15T06:27:36.236Z,11.62
2017-10-15T06:30:03.733Z,11.71
2017-10-15T06:32:31.226Z,11.83
2017-10-15T06:34:58.693Z,11.91
2017-10-15T06:37:26.181Z,12.05
2017-10-15T06:39:53.675Z,12.15
2017-10-15T06:42:21.138Z,12.25
2017-10-15T06:44:48.610Z,12.36
2017-10-15T06:47:16.089Z,12.49
2017-10-15T06:49:43.560Z,12.60
2017-10-15T06:52:11.028Z,12.68
2017-10-15T06:57:12.199Z,12.90
2017-10-15T06:59:39.705Z,12.99
2017-10-15T07:02:07.182Z,13.14
2017-10-15T07:04:34.645Z,13.20
2017-10-15T07:07:02.135Z,13.34
2017-10-15T07:09:29.633Z,13.49
2017-10-15T07:11:57.168Z,13.54
2017-10-15T07:14:24.681Z,13.63
2017-10-15T07:16:52.146Z,13.65
2017-10-15T07:19:19.631Z,13.70
2017-10-15T07:21:47.116Z,13.81
2017-10-15T07:24:14.606Z,13.92
2017-10-15T07:26:42.099Z,13.99
2017-10-15T07:29:09.593Z,14.09
2017-10-15T07:31:37.067Z,14.23
2017-10-15T07:34:04.553Z,14.33
2017-10-15T07:36:32.034Z,14.42
2017-10-15T07:38:59.513Z,14.54
2017-10-15T07:41:26.988Z,14.59
2017-10-15T07:43:54.488Z,14.67
2017-10-15T07:46:21.973Z,14.72
2017-10-15T07:48:49.466Z,14.77
2017-10-15T07:51:16.995Z,14.91
2017-10-15T07:53:44.459Z,15.00
2017-10-15T07:56:11.954Z,15.12
2017-10-15T07:58:39.425Z,15.24
2017-10-15T08:01:06.888Z,15.27
2017-10-15T08:03:35.134Z,15.43
2017-10-15T08:06:02.642Z,15.59
2017-10-15T08:08:30.154Z,15.71
2017-10-15T08:10:57.628Z,15.80
2017-10-15T08:13:25.117Z,15.87
2017-10-15T08:15:52.581Z,16.08
2017-10-15T08:18:20.068Z,16.15
2017-10-15T08:20:47.584Z,16.25
2017-10-15T08:23:15.064Z,16.37
2017-10-15T08:25:42.535Z,16.44
2017-10-15T08:28:10.039Z,16.52
2017-10-15T08:30:37.521Z,16.65
2017-10-15T08:33:04.997Z,16.74
2017-10-15T08:35:32.488Z,16.90
2017-10-15T08:37:59.991Z,17.02
2017-10-15T08:40:27.571Z,17.07
2017-10-15T08:42:55.047Z,17.22
2017-10-15T08:45:22.512Z,17.36
2017-10-15T08:47:50.023Z,17.49
2017-10-15T08:50:17.527Z,17.51
2017-10-15T08:52:45.002Z,17.59
2017-10-15T08:55:12.494Z,17.74
2017-10-15T08:57:39.999Z,17.87
2017-10-15T09:00:07.457Z,18.00
2017-10-15T09:02:34.946Z,18.10
2017-10-15T09:05:02.424Z,18.27
2017-10-15T09:07:29.933Z,18.35
2017-10-15T09:09:57.402Z,18.44
2017-10-15T09:12:24.940Z,18.53
2017-10-15T09:14:52.440Z,18.65
2017-10-15T09:17:20.382Z,18.79
2017-10-15T09:19:47.879Z,18.70
2017-10-15T09:22:15.372Z,18.76
2017-10-15T09:24:42.913Z,18.84
2017-10-15T09:27:10.392Z,18.97
2017-10-15T09:29:37.890Z,19.06
2017-10-15T09:32:05.735Z,19.14
2017-10-15T09:34:33.276Z,19.28
2017-10-15T09:37:01.226Z,19.28
2017-10-15T09:39:28.721Z,19.38
2017-10-15T09:41:56.222Z,19.34
2017-10-15T09:44:23.716Z,19.33
2017-10-15T09:46:51.179Z,19.26
2017-10-15T09:49:18.668Z,19.25
2017-10-15T09:51:46.175Z,19.20
2017-10-15T09:54:13.658Z,19.24
2017-10-15T09:56:41.197Z,19.37
2017-10-15T09:59:08.664Z,19.43
2017-10-15T10:01:36.146Z,19.63
2017-10-15T10:04:03.644Z,19.69
2017-10-15T10:06:31.105Z,19.70
2017-10-15T10:08:58.664Z,19.68
2017-10-15T10:11:26.139Z,19.79
2017-10-15T10:13:53.599Z,19.92
2017-10-15T10:16:21.076Z,19.97
2017-10-15T10:18:49.047Z,19.94
2017-10-15T10:21:16.510Z,20.00
2017-10-15T10:23:43.977Z,20.03
2017-10-15T10:26:11.491Z,20.17
2017-10-15T10:28:38.986Z,20.19
2017-10-15T10:31:06.457Z,20.17
2017-10-15T10:33:33.989Z,20.23
2017-10-15T10:36:01.444Z,20.35
2017-10-15T10:38:28.978Z,20.38
2017-10-15T10:40:56.613Z,20.46
2017-10-15T10:43:24.089Z,20.65
2017-10-15T10:45:51.575Z,20.58
2017-10-15T10:48:19.210Z,20.63
2017-10-15T10:50:46.704Z,20.61
2017-10-15T10:53:14.164Z,20.63
2017-10-15T10:55:41.636Z,20.68
2017-10-15T10:58:09.157Z,20.81
2017-10-15T11:00:36.625Z,20.86
2017-10-15T11:03:04.172Z,20.86
2017-10-15T11:05:31.697Z,20.86
2017-10-15T11:07:59.258Z,20.86
2017-10-15T11:10:26.785Z,20.97
2017-10-15T11:12:54.264Z,20.94
2017-10-15T11:15:21.744Z,21.01
2017-10-15T11:17:49.233Z,21.10
2017-10-15T11:20:16.790Z,21.13
2017-10-15T11:22:44.273Z,21.17
2017-10-15T11:25:12.666Z,21.21
2017-10-15T11:27:40.125Z,21.21
2017-10-15T11:30:07.637Z,21.30
2017-10-15T11:32:35.131Z,21.39
2017-10-15T11:35:02.659Z,21.39
2017-10-15T11:37:30.152Z,21.37
2017-10-15T11:39:57.635Z,21.37
2017-10-15T11:42:25.119Z,21.45
2017-10-15T11:44:52.588Z,21.53
2017-10-15T11:47:20.057Z,21.55
2017-10-15T11:49:47.537Z,21.64
2017-10-15T11:52:15.000Z,21.68
2017-10-15T11:54:42.494Z,21.73
2017-10-15T11:57:09.952Z,21.87
2017-10-15T11:59:37.785Z,21.90
2017-10-15T12:02:05.262Z,21.87
2017-10-15T12:04:32.801Z,21.94
2017-10-15T12:07:00.282Z,21.97
2017-10-15T12:09:27.785Z,21.98
2017-10-15T12:11:55.245Z,22.11
2017-10-15T12:14:22.724Z,22.16
2017-10-15T12:16:50.211Z,22.22
2017-10-15T12:19:17.688Z,22.31
2017-10-15T12:21:45.152Z,22.35
2017-10-15T12:24:12.670Z,22.29
2017-10-15T12:26:40.147Z,22.33
2017-10-15T12:29:07.626Z,22.46
2017-10-15T12:31:35.103Z,22.56
2017-10-15T12:34:02.567Z,22.58
2017-10-15T12:36:30.042Z,22.66
2017-10-15T12:38:57.558Z,22.83
2017-10-15T12:41:25.098Z,22.98
2017-10-15T12:43:52.568Z,23.13
2017-10-15T12:46:20.046Z,23.20
2017-10-15T12:48:47.522Z,23.23
2017-10-15T12:51:15.024Z,23.27
2017-10-15T12:53:42.507Z,23.41
2017-10-15T12:56:09.988Z,23.51
2017-10-15T12:58:37.669Z,23.63
2017-10-15T13:01:05.163Z,23.69
2017-10-15T13:03:32.623Z,23.88
2017-10-15T13:06:00.073Z,23.93
2017-10-15T13:08:27.570Z,24.10
2017-10-15T13:10:55.044Z,24.22
2017-10-15T13:13:22.554Z,24.31
2017-10-15T13:15:50.062Z,24.43
2017-10-15T13:18:17.516Z,24.42
2017-10-15T13:20:44.989Z,24.62
2017-10-15T13:23:12.493Z,24.80
2017-10-15T13:25:39.948Z,24.83
2017-10-15T13:28:07.444Z,24.92
2017-10-15T13:30:34.930Z,24.96
2017-10-15T13:33:02.380Z,25.03
2017-10-15T13:35:29.852Z,25.07
2017-10-15T13:37:58.373Z,25.16
2017-10-15T13:40:25.834Z,25.20
2017-10-15T13:42:53.302Z,25.25
2017-10-15T13:45:20.776Z,25.20
2017-10-15T13:47:48.275Z,25.24
2017-10-15T13:50:15.753Z,25.40
2017-10-15T13:52:43.235Z,25.74
2017-10-15T13:55:10.692Z,26.40
2017-10-15T13:57:38.241Z,27.09
2017-10-15T14:00:05.737Z,27.68
2017-10-15T14:02:33.236Z,28.04
2017-10-15T14:05:00.740Z,28.81
2017-10-15T14:07:28.224Z,29.46
2017-10-15T14:09:55.694Z,29.79
2017-10-15T14:12:23.168Z,30.29
2017-10-15T14:14:50.691Z,30.48
2017-10-15T14:17:18.167Z,30.63
2017-10-15T14:19:45.621Z,30.57
2017-10-15T14:22:13.167Z,30.87
2017-10-15T14:24:40.663Z,31.07
2017-10-15T14:27:08.142Z,31.59
2017-10-15T14:29:35.658Z,31.60
2017-10-15T14:32:03.182Z,31.77
2017-10-15T14:34:30.648Z,31.98
2017-10-15T14:36:58.153Z,32.08
2017-10-15T14:39:25.640Z,32.18
2017-10-15T14:41:53.172Z,32.44
2017-10-15T14:44:20.709Z,32.59
2017-10-15T14:46:48.321Z,32.96
2017-10-15T14:49:15.805Z,32.92
2017-10-15T14:51:43.307Z,32.76
2017-10-15T14:54:10.787Z,32.60
2017-10-15T14:56:38.276Z,32.99
2017-10-15T14:59:06.176Z,32.86
2017-10-15T15:01:33.648Z,32.93
2017-10-15T15:04:01.189Z,32.90
2017-10-15T15:06:28.710Z,32.88
2017-10-15T15:08:56.300Z,32.62
2017-10-15T15:11:23.799Z,32.45
2017-10-15T15:13:51.297Z,32.35
2017-10-15T15:16:18.807Z,32.43
2017-10-15T15:18:46.288Z,32.38
2017-10-15T15:21:13.778Z,32.15
2017-10-15T15:23:41.278Z,31.82
2017-10-15T15:26:08.755Z,31.54
2017-10-15T15:28:36.243Z,31.18
2017-10-15T15:31:03.727Z,30.93
2017-10-15T15:33:31.198Z,30.66
2017-10-15T15:35:58.710Z,30.27
2017-10-15T15:38:26.193Z,29.71
2017-10-15T15:40:53.645Z,28.70
2017-10-15T15:43:21.171Z,27.48
2017-10-15T15:45:48.653Z,26.48
2017-10-15T15:48:16.140Z,25.51
2017-10-15T15:50:43.638Z,24.84
2017-10-15T15:53:11.116Z,24.14
2017-10-15T15:55:38.586Z,23.63
2017-10-15T15:58:06.067Z,23.14
2017-10-15T16:00:33.692Z,22.70
2017-10-15T16:03:01.153Z,22.32
2017-10-15T16:05:28.658Z,21.97
2017-10-15T16:07:56.157Z,21.62
2017-10-15T16:10:23.644Z,21.32
2017-10-15T16:12:51.153Z,21.04
2017-10-15T16:15:18.610Z,20.76
2017-10-15T16:17:46.144Z,20.53
2017-10-15T16:20:13.623Z,20.28
2017-10-15T16:22:41.097Z,20.07
2017-10-15T16:25:08.555Z,19.87
2017-10-15T16:27:36.040Z,19.65
2017-10-15T16:30:03.502Z,19.45
2017-10-15T16:32:30.969Z,19.27
2017-10-15T16:34:58.469Z,19.14
2017-10-15T16:37:25.997Z,19.00
2017-10-15T16:39:53.474Z,18.86
2017-10-15T16:42:20.984Z,18.72
2017-10-15T16:44:48.452Z,18.59
2017-10-15T16:47:15.932Z,18.49
2017-10-15T16:49:43.418Z,18.35
2017-10-15T16:52:10.910Z,18.26
2017-10-15T16:54:40.203Z,18.15
2017-10-15T16:57:07.718Z,18.08
2017-10-15T16:59:35.220Z,17.99
2017-10-15T17:02:02.709Z,17.93
2017-10-15T17:04:30.196Z,17.85
2017-10-15T17:06:57.735Z,17.75
2017-10-15T17:09:25.242Z,17.64
2017-10-15T17:11:52.744Z,17.55
2017-10-15T17:14:20.229Z,17.48
2017-10-15T17:16:47.776Z,17.37
2017-10-15T17:19:15.282Z,17.32
2017-10-15T17:21:42.771Z,17.27
2017-10-15T17:24:10.230Z,17.19
2017-10-15T17:26:37.870Z,17.09
2017-10-15T17:29:05.343Z,17.02
2017-10-15T17:31:32.822Z,16.96
2017-10-15T17:34:00.404Z,16.90
2017-10-15T17:36:27.897Z,16.89
2017-10-15T17:38:55.383Z,16.84
2017-10-15T17:41:22.906Z,16.74
2017-10-15T17:43:50.408Z,16.66
2017-10-15T17:46:17.866Z,16.57
2017-10-15T17:48:45.367Z,16.51
2017-10-15T17:51:12.853Z,16.46
2017-10-15T17:53:40.346Z,16.39
2017-10-15T17:56:07.862Z,16.37
2017-10-15T17:58:35.364Z,16.33
2017-10-15T18:01:02.871Z,16.30
2017-10-15T18:03:30.657Z,16.29
2017-10-15T18:05:58.124Z,16.22
2017-10-15T18:08:25.629Z,16.19
2017-10-15T18:10:53.118Z,16.12
2017-10-15T18:13:20.637Z,16.08
2017-10-15T18:15:48.121Z,16.03
2017-10-15T18:18:15.620Z,16.01
2017-10-15T18:20:43.103Z,16.08
2017-10-15T18:23:10.610Z,15.96
2017-10-15T18:25:38.127Z,15.86
2017-10-15T18:28:05.615Z,15.81
2017-10-15T18:30:33.104Z,15.77
2017-10-15T18:33:00.587Z,15.74
2017-10-15T18:35:28.082Z,15.70
2017-10-15T18:37:55.562Z,15.66
2017-10-15T18:40:23.080Z,15.62
2017-10-15T18:42:50.570Z,15.59
2017-10-15T18:45:18.085Z,15.73
2017-10-15T18:47:45.749Z,15.69
2017-10-15T18:50:13.264Z,15.57
2017-10-15T18:52:40.768Z,15.50
2017-10-15T18:55:08.297Z,15.47
2017-10-15T18:57:35.784Z,15.41
2017-10-15T19:00:03.312Z,15.36
2017-10-15T19:02:30.858Z,15.32
2017-10-15T19:04:58.366Z,15.27
2017-10-15T19:07:25.858Z,15.22
2017-10-15T19:09:53.443Z,15.13
2017-10-15T19:12:20.996Z,15.07
2017-10-15T19:14:48.474Z,15.04
2017-10-15T19:17:16.004Z,15.04
2017-10-15T19:19:43.495Z,14.98
2017-10-15T19:22:10.965Z,14.92
2017-10-15T19:24:38.496Z,14.88
2017-10-15T19:27:05.994Z,14.91
2017-10-15T19:29:33.494Z,14.92
2017-10-15T19:32:01.042Z,14.92
2017-10-15T19:34:28.561Z,14.98
2017-10-15T19:36:56.036Z,15.01
2017-10-15T19:39:23.561Z,15.04
2017-10-15T19:41:51.071Z,15.01
2017-10-15T19:44:18.582Z,14.98
2017-10-15T19:46:46.105Z,15.01
2017-10-15T19:49:13.635Z,15.05
2017-10-15T19:51:41.145Z,14.98
2017-10-15T19:54:08.802Z,14.94
2017-10-15T19:56:36.469Z,14.89
2017-10-15T19:59:03.941Z,14.85
2017-10-15T20:01:31.442Z,14.91
2017-10-15T20:03:59.164Z,14.94
2017-10-15T20:06:26.681Z,14.86
2017-10-15T20:08:54.970Z,14.80
2017-10-15T20:11:22.449Z,14.73
2017-10-15T20:13:49.944Z,14.67
2017-10-15T20:16:17.452Z,14.58
2017-10-15T20:18:45.011Z,14.52
2017-10-15T20:21:12.544Z,14.45
2017-10-15T20:23:40.071Z,14.39
2017-10-15T20:26:07.586Z,14.30
2017-10-15T20:28:35.106Z,14.25
2017-10-15T20:31:02.595Z,14.18
2017-10-15T20:33:30.089Z,14.15
2017-10-15T20:35:57.561Z,14.16
2017-10-15T20:38:25.062Z,14.21
2017-10-15T20:40:52.538Z,14.19
2017-10-15T20:43:20.025Z,14.12
2017-10-15T20:45:47.613Z,14.08
2017-10-15T20:48:15.089Z,14.05
2017-10-15T20:50:42.552Z,14.04
2017-10-15T20:53:10.057Z,14.01
2017-10-15T20:55:37.532Z,13.96
2017-10-15T20:58:05.039Z,13.94
2017-10-15T21:00:32.545Z,13.88
2017-10-15T21:03:00.008Z,13.89
2017-10-15T21:05:27.482Z,13.88
2017-10-15T21:07:54.955Z,13.81
2017-10-15T21:10:23.433Z,13.80
2017-10-15T21:12:50.910Z,13.78
2017-10-15T21:15:18.426Z,13.81
2017-10-15T21:17:45.877Z,13.75
2017-10-15T21:20:13.358Z,13.71
2017-10-15T21:22:40.895Z,13.72
2017-10-15T21:25:08.362Z,13.71
2017-10-15T21:27:35.850Z,13.73
2017-10-15T21:30:03.333Z,13.73
2017-10-15T21:32:30.823Z,13.71
2017-10-15T21:34:58.329Z,13.66
2017-10-15T21:37:25.849Z,13.65
2017-10-15T21:39:53.371Z,13.60
2017-10-15T21:42:20.873Z,13.59
2017-10-15T21:44:48.480Z,13.57
2017-10-15T21:47:15.955Z,13.55
2017-10-15T21:49:43.461Z,13.55
2017-10-15T21:52:10.977Z,13.55
2017-10-15T21:54:38.463Z,13.50
2017-10-15T21:57:05.924Z,13.48
2017-10-15T21:59:33.435Z,13.44
2017-10-15T22:02:00.904Z,13.38
2017-10-15T22:04:28.408Z,13.35
2017-10-15T22:06:55.904Z,13.31
2017-10-15T22:09:23.390Z,13.39
2017-10-15T22:11:51.591Z,13.37
2017-10-15T22:14:19.085Z,13.31
2017-10-15T22:16:46.608Z,13.28
2017-10-15T22:19:14.094Z,13.33
2017-10-15T22:21:47.103Z,13.34
2017-10-15T22:24:14.586Z,13.26
2017-10-15T22:26:42.050Z,13.21
2017-10-15T22:31:44.194Z,13.13
2017-10-15T22:36:45.401Z,13.04
2017-10-15T22:39:12.914Z,13.05
2017-10-15T22:41:40.394Z,13.09
2017-10-15T22:44:07.876Z,13.07
2017-10-15T22:46:35.379Z,13.06
2017-10-15T22:49:02.851Z,13.04
2017-10-15T22:51:30.309Z,12.99
2017-10-15T22:53:57.817Z,12.91
2017-10-15T22:56:25.343Z,12.83
2017-10-15T22:58:52.833Z,12.80
2017-10-15T23:01:20.353Z,12.72
2017-10-15T23:03:47.856Z,12.67
2017-10-15T23:06:15.320Z,12.64
2017-10-15T23:08:42.807Z,12.72
2017-10-15T23:11:10.280Z,12.68
2017-10-15T23:13:37.743Z,12.69
2017-10-15T23:16:05.265Z,12.69
2017-10-15T23:18:32.766Z,12.64
2017-10-15T23:21:00.319Z,12.64
2017-10-15T23:23:27.823Z,12.64
2017-10-15T23:25:55.292Z,12.64
2017-10-15T23:28:22.766Z,12.65
2017-10-15T23:30:50.274Z,12.64
2017-10-15T23:33:18.237Z,12.64
2017-10-15T23:35:45.705Z,12.59
2017-10-15T23:38:13.189Z,12.54
2017-10-15T23:40:41.187Z,12.51
2017-10-15T23:43:08.681Z,12.52
2017-10-15T23:45:36.189Z,12.51
2017-10-15T23:48:04.031Z,12.50
2017-10-15T23:50:31.567Z,12.51
2017-10-15T23:52:59.044Z,12.55
2017-10-15T23:55:26.498Z,12.58
2017-10-15T23:57:53.962Z,12.58
